Artesia ASC Data

Date Time Air Temperature Relative Humidity Dewpoint Windchill Heat Index Wind Speed Wind Dir. Rain Solar Radiation Soil Temperature
2m 2m 3m 3m 10cm
US/Mountain F % F F F MPH deg in MJ/m^2 F
max avg avg
2021-10-14 00:05:00 56.1 47.0 36.2 56.1 56.1 5.3 6.7 5.3 181.4 194.2 0.00 0.0000000 67.4
2021-10-14 00:10:00 55.9 45.9 35.3 55.9 55.9 4.6 5.5 4.7 194.1 190.6 0.00 0.0000000 67.3
2021-10-14 00:15:00 57.2 42.0 34.3 57.2 57.2 4.0 5.1 4.4 191.3 190.8 0.00 0.0000000 67.3
2021-10-14 00:20:00 57.1 41.7 34.0 57.1 57.1 3.7 4.9 3.6 213.2 190.9 0.00 0.0000000 67.2
2021-10-14 00:25:00 56.8 43.7 34.9 56.8 56.8 3.8 4.2 2.4 4.4 83.4 0.00 0.0000000 67.2
2021-10-14 00:30:00 56.4 42.4 33.8 56.4 56.4 2.6 4.9 3.6 190.9 30.0 0.00 0.0000000 67.2
2021-10-14 00:35:00 57.5 41.1 34.0 57.5 57.5 3.3 3.5 2.4 103.6 68.4 0.00 0.0000000 67.2
2021-10-14 00:40:00 57.5 42.7 35.1 57.5 57.5 3.0 5.6 3.9 45.8 72.0 0.00 0.0000000 67.1
2021-10-14 00:45:00 57.6 41.5 34.4 57.6 57.6 1.9 4.0 2.4 71.0 65.0 0.00 0.0000000 67.1
2021-10-14 00:50:00 57.8 39.7 33.5 57.8 57.8 2.1 4.2 2.6 154.7 117.7 0.00 0.0000000 67.0
2021-10-14 00:55:00 57.5 40.2 33.5 57.5 57.5 2.8 4.4 3.2 186.8 171.5 0.00 0.0000000 67.0
2021-10-14 01:00:00 57.2 40.8 33.6 57.2 57.2 4.7 5.6 4.3 188.4 187.7 0.00 0.0000000 67.0
2021-10-14 01:05:00 55.8 45.5 35.1 55.8 55.8 2.2 5.3 3.7 268.3 224.8 0.00 0.0000000 66.9
2021-10-14 01:10:00 54.7 44.0 33.2 54.7 54.7 3.1 3.8 2.8 196.3 235.6 0.00 0.0000000 66.9
2021-10-14 01:15:00 56.0 41.8 33.1 56.0 56.0 1.9 3.3 2.4 198.8 202.5 0.00 0.0000000 66.9
2021-10-14 01:20:00 56.1 42.5 33.6 56.1 56.1 1.9 2.2 1.6 107.7 181.9 0.00 0.0000000 66.8
2021-10-14 01:25:00 55.8 43.6 33.9 55.8 55.8 2.8 3.5 2.9 126.5 121.7 0.00 0.0000000 66.8
2021-10-14 01:30:00 54.1 47.0 34.3 54.1 54.1 3.3 3.5 3.0 147.1 154.4 0.00 0.0000000 66.8
2021-10-14 01:35:00 54.1 46.5 34.1 54.1 54.1 3.8 5.5 4.2 207.0 172.8 0.00 0.0000000 66.8
2021-10-14 01:40:00 54.4 46.2 34.2 54.4 54.4 5.1 5.8 4.4 178.2 180.9 0.00 0.0000000 66.7
2021-10-14 01:45:00 54.0 47.4 34.4 54.0 54.0 4.7 6.0 5.1 182.1 182.4 0.00 0.0000000 66.7
2021-10-14 01:50:00 54.2 48.1 35.0 54.2 54.2 4.6 5.5 4.9 183.8 184.2 0.00 0.0000000 66.7
2021-10-14 01:55:00 54.2 47.6 34.8 54.2 54.2 4.0 5.1 4.0 193.1 203.0 0.00 0.0000000 66.6
2021-10-14 02:00:00 54.4 47.3 34.8 54.4 54.4 3.8 4.6 3.6 201.3 190.2 0.00 0.0000000 66.6
2021-10-14 02:05:00 54.6 47.5 35.0 54.6 54.6 4.0 4.4 4.0 214.7 204.3 0.00 0.0000000 66.6
2021-10-14 02:10:00 53.9 49.1 35.3 53.9 53.9 4.4 5.6 4.6 240.4 226.2 0.00 0.0000000 66.5
2021-10-14 02:15:00 52.7 50.8 35.0 52.7 52.7 3.8 4.4 3.2 219.9 225.8 0.00 0.0000000 66.5
2021-10-14 02:20:00 53.7 49.1 35.0 53.7 53.7 2.6 3.7 3.2 191.6 208.8 0.00 0.0000000 66.5
2021-10-14 02:25:00 53.3 48.6 34.4 53.3 53.3 1.2 3.8 2.5 144.4 181.0 0.00 0.0000000 66.4
2021-10-14 02:30:00 52.3 52.2 35.2 52.3 52.3 2.2 2.8 1.8 266.5 243.7 0.00 0.0000000 66.4
2021-10-14 02:35:00 51.4 53.9 35.2 51.4 51.4 2.6 2.6 2.2 249.6 266.0 0.00 0.0000000 66.3
2021-10-14 02:40:00 50.9 54.9 35.3 50.9 50.9 2.8 3.8 2.8 241.8 250.9 0.00 0.0000000 66.3
2021-10-14 02:45:00 50.3 57.2 35.7 50.3 50.3 4.7 4.9 3.9 240.8 241.8 0.00 0.0000000 66.3
2021-10-14 02:50:00 49.7 58.6 35.8 49.1 49.7 3.3 5.8 4.7 234.5 233.0 0.00 0.0000000 66.2
2021-10-14 02:55:00 50.3 57.6 35.9 50.3 50.3 3.8 5.1 4.1 225.9 231.4 0.00 0.0000000 66.2
2021-10-14 03:00:00 51.5 54.4 35.6 51.5 51.5 5.3 5.3 4.1 230.8 222.0 0.00 0.0000000 66.2
2021-10-14 03:05:00 51.7 54.6 35.9 51.7 51.7 3.1 5.6 4.2 206.9 217.4 0.00 0.0000000 66.1
2021-10-14 03:10:00 52.4 53.1 35.8 52.4 52.4 3.5 4.2 3.5 103.8 196.3 0.00 0.0000000 66.1
2021-10-14 03:15:00 50.2 59.9 36.8 50.2 50.2 2.8 4.6 3.5 107.8 103.1 0.00 0.0000000 66.1
2021-10-14 03:20:00 48.2 64.3 36.7 48.2 48.2 2.1 4.2 3.2 121.5 114.9 0.00 0.0000000 66.0
2021-10-14 03:25:00 47.3 65.4 36.3 47.3 47.3 1.5 1.9 1.5 221.8 197.6 0.00 0.0000000 66.0
2021-10-14 03:30:00 48.0 63.4 36.2 48.0 48.0 1.7 2.2 1.8 191.2 205.0 0.00 0.0000000 66.0
2021-10-14 03:35:00 48.6 60.9 35.7 47.8 48.6 3.3 3.5 2.3 164.3 160.4 0.00 0.0000000 65.9
2021-10-14 03:40:00 49.2 61.2 36.4 48.5 49.2 3.3 3.8 3.4 189.0 185.7 0.00 0.0000000 65.9
2021-10-14 03:45:00 49.7 57.8 35.4 47.9 49.7 4.9 4.9 3.8 187.0 186.7 0.00 0.0000000 65.8
2021-10-14 03:50:00 48.6 60.2 35.4 47.0 48.6 4.2 5.1 4.4 176.5 177.0 0.00 0.0000000 65.8
2021-10-14 03:55:00 48.0 61.6 35.4 48.0 48.0 2.4 4.2 3.1 156.0 171.5 0.00 0.0000000 65.8
2021-10-14 04:00:00 47.9 64.0 36.4 46.2 47.9 4.4 4.9 3.5 101.8 106.0 0.00 0.0000000 65.7
2021-10-14 04:05:00 47.1 65.0 35.9 46.2 47.1 3.1 4.4 3.4 112.0 106.6 0.00 0.0000000 65.7
2021-10-14 04:10:00 47.1 65.0 36.0 45.3 47.1 4.2 4.6 3.5 119.0 106.3 0.00 0.0000000 65.7
2021-10-14 04:15:00 46.9 64.9 35.7 46.9 46.9 2.6 3.8 3.2 140.1 112.0 0.00 0.0000000 65.6
2021-10-14 04:20:00 46.5 64.4 35.1 46.5 46.5 1.9 2.6 1.8 123.0 136.5 0.00 0.0000000 65.6
2021-10-14 04:25:00 46.5 64.3 35.1 46.5 46.5 2.2 3.3 2.6 96.0 114.9 0.00 0.0000000 65.6
2021-10-14 04:30:00 46.5 64.9 35.3 46.5 46.5 2.8 3.0 2.5 112.5 115.9 0.00 0.0000000 65.5
2021-10-14 04:35:00 46.2 64.6 34.9 46.2 46.2 2.6 3.3 2.8 132.6 131.1 0.00 0.0000000 65.5
2021-10-14 04:40:00 46.2 66.0 35.4 44.0 46.2 4.6 4.9 4.0 160.4 157.3 0.00 0.0000000 65.5
2021-10-14 04:45:00 45.9 66.1 35.3 44.1 45.9 4.0 5.1 4.4 161.8 159.6 0.00 0.0000000 65.4
2021-10-14 04:50:00 46.2 65.8 35.4 43.8 46.2 4.9 5.3 4.6 164.7 167.5 0.00 0.0000000 65.4
2021-10-14 04:55:00 47.4 63.2 35.5 45.1 47.4 4.9 5.5 4.8 175.7 169.6 0.00 0.0000000 65.4
2021-10-14 05:00:00 48.9 59.7 35.5 47.5 48.9 4.0 5.1 4.0 171.7 171.4 0.00 0.0000000 65.3
2021-10-14 05:05:00 49.9 57.0 35.3 48.4 49.9 4.6 5.6 4.3 149.2 170.1 0.00 0.0000000 65.3
2021-10-14 05:10:00 50.5 54.7 34.7 50.5 50.5 5.1 6.0 4.5 169.0 174.9 0.00 0.0000000 65.2
2021-10-14 05:15:00 50.8 53.0 34.3 50.8 50.8 2.8 5.5 4.0 213.2 188.5 0.00 0.0000000 65.2
2021-10-14 05:20:00 50.8 52.6 34.1 50.8 50.8 3.5 4.6 3.7 183.8 172.6 0.00 0.0000000 65.2
2021-10-14 05:25:00 50.8 52.7 34.1 50.8 50.8 1.5 3.3 2.3 129.6 179.8 0.00 0.0000000 65.2
2021-10-14 05:30:00 50.6 54.3 34.7 50.6 50.6 1.7 2.4 1.8 37.2 83.3 0.00 0.0000000 65.1
2021-10-14 05:35:00 48.0 60.8 35.1 47.0 48.0 3.5 3.7 2.4 0.7 353.1 0.00 0.0000000 65.1
2021-10-14 05:40:00 47.3 62.4 35.1 47.3 47.3 1.2 4.4 2.4 1.0 358.7 0.00 0.0000000 65.1
2021-10-14 05:45:00 47.9 59.4 34.4 47.9 47.9 0.0 1.0 0.1 263.5 23.6 0.00 0.0000000 65.0
2021-10-14 05:50:00 49.4 55.6 34.1 49.4 49.4 1.9 3.0 1.1 165.1 159.9 0.00 0.0000000 65.0
2021-10-14 05:55:00 50.7 52.7 34.0 50.7 50.7 2.8 3.7 3.0 184.3 175.9 0.00 0.0000000 65.0
2021-10-14 06:00:00 51.1 51.7 33.9 51.1 51.1 5.3 5.3 4.1 172.5 177.0 0.00 0.0000000 65.0
2021-10-14 06:05:00 50.7 53.3 34.3 50.7 50.7 5.8 6.0 5.1 165.2 176.8 0.00 0.0000000 64.9
2021-10-14 06:10:00 50.2 54.6 34.4 50.2 50.2 4.6 6.5 4.6 193.2 189.8 0.00 0.0000000 64.9
2021-10-14 06:15:00 50.0 55.3 34.6 48.7 50.0 4.2 5.8 4.4 187.3 191.4 0.00 0.0000000 64.9
2021-10-14 06:20:00 49.7 55.1 34.3 49.1 49.7 3.3 4.7 4.0 190.2 183.7 0.00 0.0000000 64.9
2021-10-14 06:25:00 49.5 55.2 34.1 49.5 49.5 1.5 3.7 2.3 188.3 199.1 0.00 0.0000000 64.8
2021-10-14 06:30:00 49.6 54.9 34.0 49.6 49.6 0.0 1.5 0.4 186.1 197.5 0.00 0.0000000 64.8
2021-10-14 06:35:00 49.5 56.5 34.7 49.5 49.5 0.0 0.8 0.1 120.7 192.1 0.00 0.0000000 64.8
2021-10-14 06:40:00 48.7 58.0 34.6 48.7 48.7 2.8 2.8 0.5 114.3 110.3 0.00 0.0000000 64.7
2021-10-14 06:45:00 48.1 59.8 34.8 46.2 48.1 4.7 4.9 3.5 97.9 92.7 0.00 0.0000000 64.7
2021-10-14 06:50:00 47.2 62.7 35.1 45.8 47.2 3.7 4.6 3.6 104.4 103.5 0.00 0.0010000 64.7
2021-10-14 06:55:00 46.7 63.8 35.1 45.5 46.7 3.5 4.0 3.3 42.1 80.6 0.00 0.0020000 64.6
2021-10-14 07:00:00 46.3 64.5 35.0 43.9 46.3 4.9 4.9 3.6 49.8 27.9 0.00 0.0040000 64.6
2021-10-14 07:05:00 45.5 65.6 34.7 45.5 45.5 3.0 4.7 3.6 32.9 26.4 0.00 0.0070000 64.5
2021-10-14 07:10:00 46.1 64.9 34.9 46.1 46.1 1.2 3.5 2.5 0.8 46.3 0.00 0.0110000 64.5
2021-10-14 07:15:00 45.0 68.1 35.1 43.0 45.0 4.0 4.0 2.6 346.5 346.7 0.00 0.0180000 64.5
2021-10-14 07:20:00 44.2 70.6 35.2 44.2 44.2 1.3 4.2 3.1 26.0 346.3 0.00 0.0270000 64.5
2021-10-14 07:25:00 44.8 69.4 35.4 44.8 44.8 0.0 1.7 1.3 19.7 16.0 0.00 0.0380000 64.4
2021-10-14 07:30:00 45.8 67.6 35.7 45.8 45.8 1.3 1.3 0.0 36.5 36.5 0.00 0.0510000 64.4
2021-10-14 07:35:00 47.0 66.4 36.3 47.0 47.0 0.0 1.3 0.1 96.9 36.1 0.00 0.0670000 64.4
2021-10-14 07:40:00 48.1 64.5 36.8 48.1 48.1 0.0 0.0 0.0 144.1 0.0 0.00 0.0840000 64.3
2021-10-14 07:45:00 48.9 60.2 35.7 48.9 48.9 1.2 1.7 0.6 62.6 108.5 0.00 0.1030000 64.3
2021-10-14 07:50:00 50.0 57.1 35.4 49.2 50.0 3.5 3.5 2.4 1.8 35.7 0.00 0.1190000 64.3
2021-10-14 07:55:00 49.9 59.3 36.2 49.1 49.9 3.5 5.3 4.2 4.1 9.2 0.00 0.1330000 64.3
2021-10-14 08:00:00 50.2 57.5 35.8 50.2 50.2 1.5 3.8 2.5 25.6 2.2 0.00 0.1480000 64.2
2021-10-14 08:05:00 51.4 54.3 35.5 51.4 51.4 3.5 3.5 1.6 31.8 3.2 0.00 0.1630000 64.2
2021-10-14 08:10:00 51.8 53.9 35.6 51.8 51.8 2.8 4.2 3.3 3.4 17.8 0.00 0.1790000 64.2
2021-10-14 08:15:00 52.3 54.1 36.2 52.3 52.3 4.7 6.0 3.9 334.0 337.4 0.00 0.1950000 64.1
2021-10-14 08:20:00 52.7 52.6 35.8 52.7 52.7 1.5 4.2 2.6 349.7 345.1 0.00 0.2100000 64.1
2021-10-14 08:25:00 53.9 51.1 36.3 53.9 53.9 1.9 3.0 2.0 318.1 339.5 0.00 0.2280000 64.1
2021-10-14 08:30:00 54.8 49.7 36.4 54.8 54.8 3.8 4.6 3.1 344.4 333.3 0.00 0.2440000 64.1
2021-10-14 08:35:00 55.2 49.4 36.5 55.2 55.2 1.3 4.0 2.7 48.8 344.9 0.00 0.2610000 64.1
2021-10-14 08:40:00 57.1 49.2 38.2 57.1 57.1 3.1 3.1 2.3 12.7 11.6 0.00 0.2770000 64.0
2021-10-14 08:45:00 55.0 44.8 33.9 55.0 55.0 2.4 4.0 2.6 11.3 355.0 0.00 0.2930000 64.0
2021-10-14 08:50:00 56.8 46.1 36.3 56.8 56.8 2.2 2.8 1.7 324.1 347.7 0.00 0.3100000 64.0
2021-10-14 08:55:00 59.1 44.0 37.2 59.1 59.1 1.0 2.2 1.2 75.1 313.4 0.00 0.3260000 64.0
2021-10-14 09:00:00 58.5 43.0 36.1 58.5 58.5 0.0 1.7 0.6 322.2 302.4 0.00 0.3420000 64.0
2021-10-14 09:05:00 61.5 40.4 37.2 61.5 61.5 0.0 1.9 1.0 110.0 118.1 0.00 0.3590000 64.0
2021-10-14 09:10:00 64.6 41.5 40.7 64.6 64.6 0.0 1.2 0.2 241.7 323.9 0.00 0.3740000 64.0
2021-10-14 09:15:00 61.8 43.9 39.6 61.8 61.8 3.7 3.7 2.3 91.4 85.1 0.00 0.3880000 64.0
2021-10-14 09:20:00 61.3 42.6 38.4 61.3 61.3 2.1 3.3 2.3 60.7 56.5 0.00 0.4030000 64.0
2021-10-14 09:25:00 60.6 39.9 36.1 60.6 60.6 3.3 4.0 2.4 47.6 14.7 0.00 0.4190000 64.0
2021-10-14 09:30:00 62.7 41.0 38.6 62.7 62.7 3.0 4.2 2.8 308.0 20.0 0.00 0.4340000 64.0
2021-10-14 09:35:00 61.3 38.9 36.1 61.3 61.3 3.3 3.7 1.9 97.0 57.6 0.00 0.4480000 64.0
2021-10-14 09:40:00 64.7 40.6 40.3 64.7 64.7 3.8 4.6 3.1 40.8 61.1 0.00 0.4620000 63.9
2021-10-14 09:45:00 67.7 42.4 44.0 67.7 67.7 2.2 4.2 2.9 120.0 67.4 0.00 0.4770000 64.0
2021-10-14 09:50:00 65.0 36.8 37.9 65.0 65.0 1.7 4.0 2.6 181.4 117.6 0.00 0.4900000 64.0
2021-10-14 09:55:00 67.9 38.8 41.9 67.9 67.9 1.5 3.3 1.9 75.6 134.3 0.00 0.5020000 64.0
2021-10-14 10:00:00 67.7 37.3 40.7 67.7 67.7 0.8 3.5 2.0 30.1 96.4 0.00 0.5140000 64.0
2021-10-14 10:05:00 67.5 37.8 40.8 67.5 67.5 1.5 4.0 2.5 96.3 55.7 0.00 0.5270000 64.0
2021-10-14 10:10:00 63.1 35.0 34.9 63.1 63.1 4.2 5.3 3.1 103.5 58.8 0.00 0.5380000 64.0
2021-10-14 10:15:00 66.5 36.4 39.0 66.5 66.5 3.8 4.9 3.4 41.1 61.1 0.00 0.5490000 64.0
2021-10-14 10:20:00 68.1 34.4 39.0 68.1 68.1 1.0 4.4 2.9 32.3 74.5 0.00 0.5630000 64.0
2021-10-14 10:25:00 72.5 36.3 44.2 72.5 72.5 2.1 4.7 2.6 163.9 129.5 0.00 0.5740000 64.1
2021-10-14 10:30:00 66.3 28.7 32.8 66.3 66.3 2.4 3.1 2.3 35.6 91.0 0.00 0.5880000 64.1
2021-10-14 10:35:00 68.3 23.6 29.6 68.3 68.3 3.8 4.0 2.7 69.6 71.2 0.00 0.5940000 64.1
2021-10-14 10:40:00 70.0 28.8 36.1 70.0 70.0 6.0 9.7 6.6 284.3 338.2 0.00 0.6090000 64.1
2021-10-14 10:45:00 72.8 31.6 40.9 72.8 72.8 4.4 5.8 3.1 319.1 295.6 0.00 0.6160000 64.2
2021-10-14 10:50:00 69.7 20.3 27.2 69.7 69.7 2.1 6.3 3.3 22.8 23.8 0.00 0.6290000 64.2
2021-10-14 10:55:00 70.9 21.2 29.2 70.9 70.9 2.4 5.1 3.1 159.5 195.9 0.00 0.6390000 64.2
2021-10-14 11:00:00 80.0 28.0 43.9 80.0 80.0 8.5 8.7 3.9 321.5 347.8 0.00 0.6470000 64.3
2021-10-14 11:05:00 74.0 23.6 34.5 74.0 74.0 10.3 10.3 5.6 297.1 316.9 0.00 0.6560000 64.3
2021-10-14 11:10:00 72.7 20.6 30.0 72.7 72.7 3.7 11.0 6.3 303.6 284.5 0.00 0.6640000 64.4
2021-10-14 11:15:00 75.8 23.3 35.6 75.8 75.8 5.3 13.1 8.4 203.4 262.3 0.00 0.6700000 64.4
2021-10-14 11:20:00 75.6 17.4 28.2 75.6 75.6 1.0 6.5 2.0 1.1 264.7 0.00 0.6800000 64.5
2021-10-14 11:25:00 74.4 14.9 23.5 74.4 74.4 3.8 8.3 4.5 253.4 290.3 0.00 0.6860000 64.5
2021-10-14 11:30:00 75.9 13.9 23.1 75.9 75.9 12.1 13.5 6.3 187.2 189.9 0.00 0.6950000 64.5
2021-10-14 11:35:00 75.5 18.5 29.7 75.5 75.5 9.2 10.6 8.1 249.7 234.6 0.00 0.6980000 64.6
2021-10-14 11:40:00 76.7 13.1 22.3 76.7 76.7 14.7 21.2 13.5 247.4 243.1 0.00 0.7040000 64.6
2021-10-14 11:45:00 74.8 14.3 22.8 74.8 74.8 11.5 21.0 12.6 240.1 243.7 0.00 0.7090000 64.7
2021-10-14 11:50:00 76.6 11.6 19.4 76.6 76.6 15.1 19.8 15.5 251.1 250.7 0.00 0.7150000 64.7
2021-10-14 11:55:00 79.3 20.1 34.9 79.3 79.3 13.3 18.9 14.5 240.2 242.2 0.00 0.7210000 64.8
2021-10-14 12:00:00 78.2 12.6 22.5 78.2 78.2 12.1 17.4 13.1 259.9 250.9 0.00 0.7260000 64.9
2021-10-14 12:05:00 76.8 16.3 27.7 76.8 76.8 9.0 18.0 13.7 234.9 240.8 0.00 0.7280000 64.9
2021-10-14 12:10:00 73.1 13.2 19.7 73.1 73.1 23.0 23.7 13.6 252.6 243.6 0.00 0.7320000 64.9
2021-10-14 12:15:00 77.6 15.2 26.6 77.6 77.6 11.3 18.7 14.1 248.1 239.3 0.00 0.7330000 65.0
2021-10-14 12:20:00 80.1 16.9 31.1 80.1 80.1 20.6 21.2 16.6 257.1 244.3 0.00 0.7370000 65.1
2021-10-14 12:25:00 82.9 18.3 35.5 82.9 82.9 14.2 21.9 17.5 235.3 241.1 0.00 0.7400000 65.1
2021-10-14 12:30:00 77.6 13.9 24.5 77.6 77.6 18.3 25.3 17.1 244.8 235.2 0.00 0.7420000 65.2
2021-10-14 12:35:00 78.9 7.7 11.6 78.9 78.9 13.5 18.0 15.2 256.8 246.5 0.00 0.7440000 65.2
2021-10-14 12:40:00 85.2 20.0 39.6 85.2 85.2 11.2 21.2 15.9 236.7 245.0 0.00 0.7450000 65.3
2021-10-14 12:45:00 78.8 7.5 11.0 78.8 78.8 22.3 24.4 14.9 238.3 233.9 0.00 0.7450000 65.3
2021-10-14 12:50:00 77.6 8.2 12.1 77.6 77.6 14.7 24.8 16.9 266.8 255.2 0.00 0.7450000 65.4
2021-10-14 12:55:00 74.3 12.5 19.3 74.3 74.3 14.0 19.4 14.8 268.5 263.1 0.00 0.7450000 65.5
2021-10-14 13:00:00 79.4 8.4 14.0 79.4 79.4 17.2 20.6 14.7 281.2 255.4 0.00 0.7410000 65.5
2021-10-14 13:05:00 70.0 15.1 20.4 70.0 70.0 16.0 23.5 16.0 271.5 251.1 0.00 0.7390000 65.6
2021-10-14 13:10:00 79.0 7.4 10.9 79.0 79.0 16.7 21.7 14.0 238.5 253.2 0.00 0.7380000 65.6
2021-10-14 13:15:00 85.7 19.0 38.7 85.7 85.7 17.6 20.5 15.9 237.6 240.3 0.00 0.7370000 65.7
2021-10-14 13:20:00 79.5 8.0 13.0 79.5 79.5 13.9 20.1 14.1 273.3 250.8 0.00 0.7330000 65.8
2021-10-14 13:25:00 79.3 11.2 20.7 79.3 79.3 15.6 21.7 17.3 245.6 252.1 0.00 0.7300000 65.8
2021-10-14 13:30:00 74.7 8.3 10.2 74.7 74.7 15.5 18.7 15.9 230.9 234.1 0.00 0.7260000 65.9
2021-10-14 13:35:00 73.3 14.5 21.9 73.3 73.3 19.6 19.6 14.5 233.4 230.8 0.00 0.7200000 65.9
2021-10-14 13:40:00 80.4 9.2 16.7 80.4 80.4 16.5 19.6 15.3 257.9 242.3 0.00 0.7150000 66.0
2021-10-14 13:45:00 81.3 16.6 31.7 81.3 81.3 16.7 20.5 15.2 266.6 256.7 0.00 0.7160000 66.1
2021-10-14 13:50:00 86.6 18.3 38.5 86.6 86.6 14.6 19.4 15.1 234.6 237.3 0.00 0.7100000 66.1
2021-10-14 13:55:00 80.7 11.4 22.2 80.7 80.7 14.7 19.2 14.8 246.2 245.5 0.00 0.7020000 66.2
2021-10-14 14:00:00 85.0 16.3 34.2 85.0 85.0 9.9 18.5 12.9 230.1 248.5 0.00 0.6970000 66.3
2021-10-14 14:05:00 81.5 8.8 16.6 81.5 81.5 13.0 19.9 15.3 245.7 242.1 0.00 0.6900000 66.4
2021-10-14 14:10:00 80.2 9.6 17.6 80.2 80.2 13.1 19.2 14.7 221.1 231.5 0.00 0.6830000 66.4
2021-10-14 14:15:00 80.3 9.3 17.0 80.3 80.3 10.5 17.4 14.1 257.6 256.7 0.00 0.6760000 66.5
2021-10-14 14:20:00 80.7 9.9 18.8 80.7 80.7 19.6 20.1 14.4 202.7 244.7 0.00 0.6680000 66.6
2021-10-14 14:25:00 81.4 7.1 11.8 81.4 81.4 16.9 18.5 13.7 244.7 239.6 0.00 0.6580000 66.6
2021-10-14 14:30:00 80.5 9.3 17.1 80.5 80.5 11.5 19.8 14.1 236.9 243.8 0.00 0.6510000 66.7
2021-10-14 14:35:00 80.2 8.3 14.4 80.2 80.2 13.9 20.5 13.8 227.4 240.8 0.00 0.6420000 66.8
2021-10-14 14:40:00 82.2 16.1 31.6 82.2 82.2 10.5 19.8 14.3 225.7 242.5 0.00 0.6310000 66.8
2021-10-14 14:45:00 82.9 12.1 25.3 82.9 82.9 18.9 19.2 15.9 258.8 240.9 0.00 0.6220000 66.9
2021-10-14 14:50:00 81.1 7.4 12.4 81.1 81.1 14.2 19.2 13.9 222.2 242.7 0.00 0.6120000 67.0
2021-10-14 14:55:00 81.0 11.2 22.0 81.0 81.0 12.6 21.2 15.5 216.4 246.5 0.00 0.6010000 67.0
2021-10-14 15:00:00 76.0 8.1 10.6 76.0 76.0 16.5 21.0 16.4 240.2 235.9 0.00 0.5910000 67.1
2021-10-14 15:05:00 85.4 15.9 34.0 85.4 85.4 13.5 15.8 12.9 254.3 254.5 0.00 0.5790000 67.2
2021-10-14 15:10:00 80.4 6.1 7.6 80.4 80.4 11.2 17.4 13.7 267.5 262.1 0.00 0.5690000 67.2
2021-10-14 15:15:00 81.0 6.8 10.6 81.0 81.0 11.3 17.1 12.6 273.1 259.5 0.00 0.5560000 67.3
2021-10-14 15:20:00 80.5 7.9 13.5 80.5 80.5 9.9 21.2 15.0 250.6 248.9 0.00 0.5420000 67.4
2021-10-14 15:25:00 77.2 9.8 16.0 77.2 77.2 16.4 16.7 12.5 236.4 243.7 0.00 0.5330000 67.4
2021-10-14 15:30:00 77.8 13.4 23.8 77.8 77.8 10.8 18.0 12.6 256.1 243.5 0.00 0.5190000 67.4
2021-10-14 15:35:00 79.9 12.5 23.7 79.9 79.9 9.9 18.7 13.3 256.8 263.1 0.00 0.5050000 67.5
2021-10-14 15:40:00 77.6 11.5 19.9 77.6 77.6 10.6 14.9 12.0 258.9 255.5 0.00 0.4920000 67.6
2021-10-14 15:45:00 81.4 8.3 15.4 81.4 81.4 17.8 17.8 13.3 238.3 246.8 0.00 0.4780000 67.6
2021-10-14 15:50:00 81.0 7.0 11.2 81.0 81.0 14.4 16.9 13.6 249.3 246.5 0.00 0.4620000 67.7
2021-10-14 15:55:00 80.7 5.5 5.7 80.7 80.7 14.4 20.5 16.1 205.8 235.2 0.00 0.4480000 67.7
2021-10-14 16:00:00 78.0 11.3 19.9 78.0 78.0 14.7 20.8 15.0 233.3 238.0 0.00 0.4340000 67.7
2021-10-14 16:05:00 78.5 10.9 19.4 78.5 78.5 17.8 18.9 13.9 224.1 237.3 0.00 0.4190000 67.8
2021-10-14 16:10:00 79.4 9.9 17.9 79.4 79.4 16.9 20.1 14.5 243.8 252.9 0.00 0.4030000 67.8
2021-10-14 16:15:00 80.4 10.0 18.9 80.4 80.4 11.5 18.7 14.2 251.2 250.3 0.00 0.3880000 67.8
2021-10-14 16:20:00 78.3 12.0 21.5 78.3 78.3 15.5 19.0 13.4 243.3 245.2 0.00 0.3730000 67.9
2021-10-14 16:25:00 80.1 8.2 13.9 80.1 80.1 17.1 18.3 14.8 251.1 241.2 0.00 0.3570000 67.9
2021-10-14 16:30:00 82.1 12.2 24.8 82.1 82.1 14.0 18.3 13.6 249.9 238.7 0.00 0.3410000 67.9
2021-10-14 16:35:00 80.4 5.9 6.7 80.4 80.4 19.4 20.5 16.4 253.9 243.9 0.00 0.3250000 67.9
2021-10-14 16:40:00 79.7 6.3 7.7 79.7 79.7 14.2 19.2 15.5 269.0 242.9 0.00 0.3080000 68.0
2021-10-14 16:45:00 79.6 7.6 11.9 79.6 79.6 13.3 18.3 14.2 242.7 242.6 0.00 0.2920000 68.0
2021-10-14 16:50:00 79.3 7.4 11.0 79.3 79.3 16.0 18.5 15.1 239.2 240.4 0.00 0.2740000 68.0
2021-10-14 16:55:00 78.1 11.1 19.4 78.1 78.1 16.7 19.0 14.9 244.3 238.6 0.00 0.2580000 68.0
2021-10-14 17:00:00 80.2 12.1 23.2 80.2 80.2 15.3 18.5 14.3 213.1 228.8 0.00 0.2410000 68.1
2021-10-14 17:05:00 79.6 6.3 7.9 79.6 79.6 14.9 19.8 15.5 227.7 233.6 0.00 0.2250000 68.1
2021-10-14 17:10:00 78.0 10.0 17.0 78.0 78.0 15.8 22.6 15.1 259.0 240.3 0.00 0.2080000 68.1
2021-10-14 17:15:00 78.6 8.1 12.6 78.6 78.6 20.1 20.1 14.4 240.7 240.8 0.00 0.1910000 68.1
2021-10-14 17:20:00 78.1 9.4 15.6 78.1 78.1 17.1 25.1 17.3 246.3 232.6 0.00 0.1750000 68.1
2021-10-14 17:25:00 77.9 9.2 15.0 77.9 77.9 13.7 18.7 15.6 225.4 234.0 0.00 0.1600000 68.2
2021-10-14 17:30:00 77.3 9.2 14.4 77.3 77.3 14.0 17.8 14.2 231.6 235.5 0.00 0.1450000 68.2
2021-10-14 17:35:00 77.1 9.4 14.8 77.1 77.1 12.2 19.6 13.6 219.4 232.9 0.00 0.1290000 68.2
2021-10-14 17:40:00 76.6 10.0 15.9 76.6 76.6 13.1 18.0 12.9 211.7 230.4 0.00 0.1130000 68.2
2021-10-14 17:45:00 76.4 9.8 15.2 76.4 76.4 11.0 17.8 14.0 256.6 230.3 0.00 0.0970000 68.2
2021-10-14 17:50:00 76.2 10.1 16.0 76.2 76.2 13.5 16.9 12.6 220.4 229.5 0.00 0.0800000 68.2
2021-10-14 17:55:00 75.5 10.2 15.5 75.5 75.5 9.6 19.9 12.7 227.3 229.9 0.00 0.0620000 68.2
2021-10-14 18:00:00 75.2 9.9 14.7 75.2 75.2 11.5 18.1 12.9 220.5 230.1 0.00 0.0460000 68.2
2021-10-14 18:05:00 74.9 10.4 15.6 74.9 74.9 11.7 16.5 12.4 219.2 229.2 0.00 0.0330000 68.2
2021-10-14 18:10:00 74.1 10.6 15.4 74.1 74.1 10.5 14.0 11.8 227.7 230.2 0.00 0.0220000 68.2
2021-10-14 18:15:00 73.9 11.0 15.9 73.9 73.9 8.7 16.2 10.5 209.3 227.1 0.00 0.0140000 68.2
2021-10-14 18:20:00 72.8 11.4 16.0 72.8 72.8 11.3 12.6 9.8 238.7 223.6 0.00 0.0090000 68.2
2021-10-14 18:25:00 72.2 11.7 16.2 72.2 72.2 10.3 13.3 10.3 242.8 230.6 0.00 0.0050000 68.2
2021-10-14 18:30:00 71.8 11.6 15.7 71.8 71.8 11.2 13.3 10.6 239.4 229.3 0.00 0.0030000 68.2
2021-10-14 18:35:00 71.7 11.9 16.0 71.7 71.7 9.6 13.1 9.6 235.4 229.4 0.00 0.0020000 68.2
2021-10-14 18:40:00 70.8 12.4 16.4 70.8 70.8 8.1 12.8 8.7 209.8 223.3 0.00 0.0010000 68.2
2021-10-14 18:45:00 70.1 12.6 16.2 70.1 70.1 7.6 10.3 8.2 239.7 226.1 0.00 0.0000000 68.2
2021-10-14 18:50:00 69.5 13.2 16.8 69.5 69.5 8.3 9.6 7.7 223.2 224.2 0.00 0.0000000 68.2
2021-10-14 18:55:00 69.2 13.3 16.8 69.2 69.2 6.5 11.0 8.5 240.8 231.4 0.00 0.0000000 68.2
2021-10-14 19:00:00 68.2 13.9 17.0 68.2 68.2 7.2 9.6 7.7 242.3 231.7 0.00 0.0000000 68.2
2021-10-14 19:05:00 67.7 14.9 18.2 67.7 67.7 6.2 10.3 7.4 241.7 237.7 0.00 0.0000000 68.1
2021-10-14 19:10:00 67.7 14.9 18.2 67.7 67.7 8.0 11.5 8.4 253.5 241.7 0.00 0.0000000 68.2
2021-10-14 19:15:00 67.2 15.3 18.3 67.2 67.2 8.1 9.7 8.2 257.9 247.1 0.00 0.0000000 68.1
2021-10-14 19:20:00 66.7 16.2 19.3 66.7 66.7 8.5 9.9 8.2 262.6 253.3 0.00 0.0000000 68.1
2021-10-14 19:25:00 66.1 16.5 19.2 66.1 66.1 7.8 9.7 8.1 256.3 249.1 0.00 0.0000000 68.1
2021-10-14 19:30:00 66.0 16.5 19.2 66.0 66.0 7.4 9.9 8.1 247.8 255.3 0.00 0.0000000 68.1
2021-10-14 19:35:00 65.3 16.9 19.1 65.3 65.3 6.7 8.8 7.5 254.7 263.4 0.00 0.0000000 68.1
2021-10-14 19:40:00 64.8 17.2 19.2 64.8 64.8 7.8 8.1 7.3 263.6 260.3 0.00 0.0000000 68.1
2021-10-14 19:45:00 65.0 17.3 19.6 65.0 65.0 8.1 9.2 7.9 276.4 257.9 0.00 0.0000000 68.1
2021-10-14 19:50:00 64.6 17.6 19.6 64.6 64.6 8.0 9.2 7.9 265.3 264.5 0.00 0.0000000 68.0
2021-10-14 19:55:00 63.4 19.2 20.7 63.4 63.4 6.5 8.5 7.2 282.1 270.3 0.00 0.0000000 68.0
2021-10-14 20:00:00 62.3 19.4 20.0 62.3 62.3 6.2 7.2 6.5 283.7 279.7 0.00 0.0000000 68.0
2021-10-14 20:05:00 62.1 20.0 20.5 62.1 62.1 6.5 8.0 6.6 289.8 283.4 0.00 0.0000000 68.0
2021-10-14 20:10:00 61.4 20.2 20.2 61.4 61.4 7.8 8.5 7.4 281.7 287.6 0.00 0.0000000 67.9
2021-10-14 20:15:00 61.2 20.1 19.9 61.2 61.2 8.1 9.4 7.8 279.9 285.1 0.00 0.0000000 67.9
2021-10-14 20:20:00 60.9 20.8 20.4 60.9 60.9 8.0 9.7 8.2 272.7 281.1 0.00 0.0000000 67.8
2021-10-14 20:25:00 61.2 20.0 19.8 61.2 61.2 8.1 9.7 8.5 265.2 275.1 0.00 0.0000000 67.8
2021-10-14 20:30:00 60.5 21.3 20.6 60.5 60.5 6.5 8.7 7.6 243.4 267.5 0.00 0.0000000 67.8
2021-10-14 20:35:00 59.2 22.7 21.1 59.2 59.2 6.5 7.4 6.3 261.9 260.3 0.00 0.0000000 67.8
2021-10-14 20:40:00 58.6 23.0 20.8 58.6 58.6 6.9 7.8 6.6 258.7 263.4 0.00 0.0000000 67.7
2021-10-14 20:45:00 58.1 23.8 21.3 58.1 58.1 5.5 7.6 6.1 251.9 259.7 0.00 0.0000000 67.7
2021-10-14 20:50:00 57.3 24.6 21.3 57.3 57.3 5.6 7.2 6.1 245.0 257.4 0.00 0.0000000 67.7
2021-10-14 20:55:00 57.3 24.4 21.1 57.3 57.3 6.9 7.2 6.5 265.5 264.5 0.00 0.0000000 67.6
2021-10-14 21:00:00 57.4 24.7 21.6 57.4 57.4 6.5 7.8 6.8 258.8 268.2 0.00 0.0000000 67.6
2021-10-14 21:05:00 56.2 26.8 22.4 56.2 56.2 5.6 6.5 5.7 262.8 255.4 0.00 0.0000000 67.6
2021-10-14 21:10:00 54.6 28.3 22.4 54.6 54.6 5.8 6.2 5.6 263.7 264.0 0.00 0.0000000 67.5
2021-10-14 21:15:00 53.9 29.4 22.7 53.9 53.9 7.1 7.1 6.3 268.8 269.1 0.00 0.0000000 67.5
2021-10-14 21:20:00 56.1 25.2 20.9 56.1 56.1 7.8 8.8 7.6 256.9 269.3 0.00 0.0000000 67.4
2021-10-14 21:25:00 57.9 23.2 20.5 57.9 57.9 7.2 8.5 7.4 272.9 269.9 0.00 0.0000000 67.4
2021-10-14 21:30:00 57.8 23.8 21.1 57.8 57.8 6.2 8.0 6.8 279.8 269.4 0.00 0.0000000 67.4
2021-10-14 21:35:00 58.1 23.3 20.8 58.1 58.1 7.2 7.8 7.0 279.0 273.1 0.00 0.0000000 67.3
2021-10-14 21:40:00 58.5 22.7 20.4 58.5 58.5 7.4 7.8 7.1 266.8 272.0 0.00 0.0000000 67.3
2021-10-14 21:45:00 58.3 22.9 20.5 58.3 58.3 6.3 7.8 6.6 266.7 266.2 0.00 0.0000000 67.3
2021-10-14 21:50:00 56.3 26.1 21.9 56.3 56.3 6.2 7.1 5.9 255.2 257.3 0.00 0.0000000 67.2
2021-10-14 21:55:00 53.7 30.0 22.9 53.7 53.7 5.5 5.8 5.2 264.1 255.9 0.00 0.0000000 67.2
2021-10-14 22:00:00 52.6 31.4 23.1 52.6 52.6 5.1 5.8 5.3 257.4 263.0 0.00 0.0000000 67.1
2021-10-14 22:05:00 51.8 32.3 23.0 51.8 51.8 5.1 5.5 5.1 266.5 259.3 0.00 0.0000000 67.1
2021-10-14 22:10:00 51.3 33.0 23.1 51.3 51.3 5.3 5.6 5.2 268.8 264.4 0.00 0.0000000 67.0
2021-10-14 22:15:00 51.0 33.8 23.4 51.0 51.0 5.1 5.6 5.2 261.7 267.4 0.00 0.0000000 67.0
2021-10-14 22:20:00 50.5 33.6 22.9 50.5 50.5 5.1 5.6 5.0 266.0 258.6 0.00 0.0000000 67.0
2021-10-14 22:25:00 51.2 30.7 21.3 51.2 51.2 5.6 6.3 5.4 252.6 255.0 0.00 0.0000000 66.9
2021-10-14 22:30:00 52.1 29.9 21.5 52.1 52.1 4.9 6.5 5.6 264.1 263.1 0.00 0.0000000 66.9
2021-10-14 22:35:00 52.1 29.6 21.2 52.1 52.1 5.6 5.8 5.0 263.4 265.1 0.00 0.0000000 66.8
2021-10-14 22:40:00 51.8 30.0 21.3 51.8 51.8 4.4 5.8 5.0 243.3 260.6 0.00 0.0000000 66.8
2021-10-14 22:45:00 52.0 29.5 21.1 52.0 52.0 4.6 5.6 4.9 273.0 253.1 0.00 0.0000000 66.8
2021-10-14 22:50:00 51.9 30.2 21.6 51.9 51.9 4.2 5.1 4.4 263.5 257.3 0.00 0.0000000 66.7
2021-10-14 22:55:00 51.4 31.1 21.9 51.4 51.4 4.6 4.9 4.3 250.2 252.8 0.00 0.0000000 66.7
2021-10-14 23:00:00 50.7 31.4 21.5 50.7 50.7 4.6 5.5 4.8 251.2 253.9 0.00 0.0000000 66.6
2021-10-14 23:05:00 50.5 32.1 21.8 50.5 50.5 4.0 5.1 4.5 244.3 247.9 0.00 0.0000000 66.6
2021-10-14 23:10:00 50.8 30.5 20.8 50.8 50.8 4.2 4.9 4.4 254.0 248.0 0.00 0.0000000 66.5
2021-10-14 23:15:00 50.4 30.4 20.4 50.4 50.4 4.2 4.9 4.2 247.5 248.3 0.00 0.0000000 66.5
2021-10-14 23:20:00 50.6 30.0 20.3 50.6 50.6 3.1 4.4 3.9 242.4 247.4 0.00 0.0000000 66.4
2021-10-14 23:25:00 50.6 30.1 20.4 50.6 50.6 2.2 3.8 3.0 289.9 261.0 0.00 0.0000000 66.4
2021-10-14 23:30:00 50.6 29.6 20.0 50.6 50.6 2.4 3.1 2.4 49.3 354.9 0.00 0.0000000 66.3
2021-10-14 23:35:00 51.7 27.6 19.3 51.7 51.7 3.0 3.7 2.9 82.0 61.9 0.00 0.0000000 66.3
2021-10-14 23:40:00 51.8 28.1 19.8 51.8 51.8 4.6 4.7 2.3 139.1 104.0 0.00 0.0000000 66.3
2021-10-14 23:45:00 51.8 27.7 19.5 51.8 51.8 2.6 4.7 2.2 195.3 184.6 0.00 0.0000000 66.2
2021-10-14 23:50:00 51.6 31.3 22.1 51.6 51.6 2.8 3.3 1.9 266.4 247.0 0.00 0.0000000 66.2
2021-10-14 23:55:00 50.8 30.1 20.6 50.8 50.8 4.2 4.2 3.3 209.6 238.4 0.00 0.0000000 66.1
2021-10-15 00:00:00 50.2 31.5 21.1 50.2 50.2 2.4 3.8 2.6 310.2 243.5 0.00 0.0000000 66.1

Data is courtesy of the NM Climate Center. DO NOT USE IN LEGAL PROCEEDINGS.